sensor_id;sensor_type;location;lat;lon;timestamp;P1;durP1;ratioP1;P2;durP2;ratioP2
28166;SDS011;15455;53.376;-6.262;2023-07-31T00:02:34;1.67;;;0.68;;
28166;SDS011;15455;53.376;-6.262;2023-07-31T00:05:20;4.35;;;0.90;;
28166;SDS011;15455;53.376;-6.262;2023-07-31T00:08:06;5.13;;;1.13;;
28166;SDS011;15455;53.376;-6.262;2023-07-31T00:10:52;1.58;;;0.82;;
28166;SDS011;15455;53.376;-6.262;2023-07-31T00:13:38;2.90;;;0.80;;
28166;SDS011;15455;53.376;-6.262;2023-07-31T00:16:23;2.70;;;1.02;;
28166;SDS011;15455;53.376;-6.262;2023-07-31T00:19:09;0.90;;;0.57;;
28166;SDS011;15455;53.376;-6.262;2023-07-31T00:21:54;2.17;;;1.10;;
28166;SDS011;15455;53.376;-6.262;2023-07-31T00:24:40;2.00;;;1.10;;
28166;SDS011;15455;53.376;-6.262;2023-07-31T00:27:25;1.88;;;1.17;;
28166;SDS011;15455;53.376;-6.262;2023-07-31T00:30:11;5.03;;;1.48;;
28166;SDS011;15455;53.376;-6.262;2023-07-31T00:32:57;1.35;;;0.80;;
28166;SDS011;15455;53.376;-6.262;2023-07-31T00:35:42;2.65;;;0.90;;
28166;SDS011;15455;53.376;-6.262;2023-07-31T00:38:28;4.82;;;1.02;;
28166;SDS011;15455;53.376;-6.262;2023-07-31T00:41:13;4.03;;;0.80;;
28166;SDS011;15455;53.376;-6.262;2023-07-31T00:44:00;2.05;;;0.80;;
28166;SDS011;15455;53.376;-6.262;2023-07-31T00:46:45;5.10;;;0.85;;
28166;SDS011;15455;53.376;-6.262;2023-07-31T00:49:31;3.42;;;1.00;;
28166;SDS011;15455;53.376;-6.262;2023-07-31T00:52:18;4.13;;;1.15;;
28166;SDS011;15455;53.376;-6.262;2023-07-31T00:55:04;1.63;;;0.80;;
28166;SDS011;15455;53.376;-6.262;2023-07-31T00:57:50;2.10;;;1.00;;
28166;SDS011;15455;53.376;-6.262;2023-07-31T01:00:38;5.32;;;0.93;;
28166;SDS011;15455;53.376;-6.262;2023-07-31T01:03:23;1.73;;;0.85;;
28166;SDS011;15455;53.376;-6.262;2023-07-31T01:06:18;1.98;;;0.70;;
28166;SDS011;15455;53.376;-6.262;2023-07-31T01:12:41;3.72;;;0.73;;
28166;SDS011;15455;53.376;-6.262;2023-07-31T01:15:30;3.33;;;0.75;;
28166;SDS011;15455;53.376;-6.262;2023-07-31T01:18:15;5.22;;;0.93;;
28166;SDS011;15455;53.376;-6.262;2023-07-31T01:21:03;2.75;;;1.02;;
28166;SDS011;15455;53.376;-6.262;2023-07-31T01:24:13;2.72;;;0.90;;
28166;SDS011;15455;53.376;-6.262;2023-07-31T01:27:37;2.15;;;0.82;;
28166;SDS011;15455;53.376;-6.262;2023-07-31T01:30:32;1.75;;;0.80;;
28166;SDS011;15455;53.376;-6.262;2023-07-31T01:33:20;2.60;;;0.90;;
28166;SDS011;15455;53.376;-6.262;2023-07-31T01:36:06;2.08;;;1.00;;
28166;SDS011;15455;53.376;-6.262;2023-07-31T01:38:57;2.90;;;1.10;;
28166;SDS011;15455;53.376;-6.262;2023-07-31T01:41:44;3.70;;;1.25;;
28166;SDS011;15455;53.376;-6.262;2023-07-31T01:44:29;1.23;;;0.65;;
28166;SDS011;15455;53.376;-6.262;2023-07-31T01:47:15;3.10;;;0.82;;
28166;SDS011;15455;53.376;-6.262;2023-07-31T01:50:01;1.58;;;0.65;;
28166;SDS011;15455;53.376;-6.262;2023-07-31T01:52:46;1.67;;;0.50;;
28166;SDS011;15455;53.376;-6.262;2023-07-31T01:55:32;0.52;;;0.50;;
28166;SDS011;15455;53.376;-6.262;2023-07-31T01:58:18;3.65;;;0.65;;
28166;SDS011;15455;53.376;-6.262;2023-07-31T02:01:04;3.22;;;0.50;;
28166;SDS011;15455;53.376;-6.262;2023-07-31T02:03:52;2.45;;;0.70;;
28166;SDS011;15455;53.376;-6.262;2023-07-31T02:06:40;1.65;;;0.68;;
28166;SDS011;15455;53.376;-6.262;2023-07-31T02:09:26;1.95;;;0.60;;
28166;SDS011;15455;53.376;-6.262;2023-07-31T02:12:11;1.65;;;0.65;;
28166;SDS011;15455;53.376;-6.262;2023-07-31T02:14:59;1.23;;;0.52;;
28166;SDS011;15455;53.376;-6.262;2023-07-31T02:17:45;2.60;;;0.68;;
28166;SDS011;15455;53.376;-6.262;2023-07-31T02:20:33;1.80;;;0.70;;
28166;SDS011;15455;53.376;-6.262;2023-07-31T02:23:19;0.90;;;0.57;;
28166;SDS011;15455;53.376;-6.262;2023-07-31T02:26:05;4.30;;;0.73;;
28166;SDS011;15455;53.376;-6.262;2023-07-31T02:28:50;3.00;;;0.88;;
28166;SDS011;15455;53.376;-6.262;2023-07-31T02:31:36;3.78;;;0.82;;
28166;SDS011;15455;53.376;-6.262;2023-07-31T02:34:23;1.98;;;0.60;;
28166;SDS011;15455;53.376;-6.262;2023-07-31T02:37:08;3.67;;;0.75;;
28166;SDS011;15455;53.376;-6.262;2023-07-31T02:39:54;2.35;;;0.65;;
28166;SDS011;15455;53.376;-6.262;2023-07-31T02:42:39;1.50;;;0.70;;
28166;SDS011;15455;53.376;-6.262;2023-07-31T02:45:25;3.22;;;0.80;;
28166;SDS011;15455;53.376;-6.262;2023-07-31T02:48:11;1.33;;;0.60;;
28166;SDS011;15455;53.376;-6.262;2023-07-31T02:50:56;1.20;;;0.70;;
28166;SDS011;15455;53.376;-6.262;2023-07-31T02:53:41;3.33;;;0.80;;
28166;SDS011;15455;53.376;-6.262;2023-07-31T02:56:27;3.05;;;0.70;;
28166;SDS011;15455;53.376;-6.262;2023-07-31T02:59:12;1.08;;;0.38;;
28166;SDS011;15455;53.376;-6.262;2023-07-31T03:01:58;1.02;;;0.57;;
28166;SDS011;15455;53.376;-6.262;2023-07-31T03:04:44;0.73;;;0.45;;
28166;SDS011;15455;53.376;-6.262;2023-07-31T03:07:29;0.68;;;0.50;;
28166;SDS011;15455;53.376;-6.262;2023-07-31T03:10:15;1.25;;;0.50;;
28166;SDS011;15455;53.376;-6.262;2023-07-31T03:13:01;0.93;;;0.50;;
28166;SDS011;15455;53.376;-6.262;2023-07-31T03:15:46;0.90;;;0.30;;
28166;SDS011;15455;53.376;-6.262;2023-07-31T03:18:32;1.27;;;0.40;;
28166;SDS011;15455;53.376;-6.262;2023-07-31T03:21:17;0.57;;;0.30;;
28166;SDS011;15455;53.376;-6.262;2023-07-31T03:24:03;2.08;;;0.40;;
28166;SDS011;15455;53.376;-6.262;2023-07-31T03:26:49;1.55;;;0.35;;
28166;SDS011;15455;53.376;-6.262;2023-07-31T03:29:34;2.47;;;0.60;;
28166;SDS011;15455;53.376;-6.262;2023-07-31T03:32:20;1.95;;;0.45;;
28166;SDS011;15455;53.376;-6.262;2023-07-31T03:35:06;0.50;;;0.50;;
28166;SDS011;15455;53.376;-6.262;2023-07-31T03:37:52;5.15;;;0.60;;
28166;SDS011;15455;53.376;-6.262;2023-07-31T03:40:37;0.80;;;0.32;;
28166;SDS011;15455;53.376;-6.262;2023-07-31T03:43:22;0.35;;;0.30;;
28166;SDS011;15455;53.376;-6.262;2023-07-31T03:46:08;0.40;;;0.30;;
28166;SDS011;15455;53.376;-6.262;2023-07-31T03:48:54;0.57;;;0.47;;
28166;SDS011;15455;53.376;-6.262;2023-07-31T03:51:40;3.97;;;0.60;;
28166;SDS011;15455;53.376;-6.262;2023-07-31T03:54:27;0.75;;;0.50;;
28166;SDS011;15455;53.376;-6.262;2023-07-31T03:57:12;0.30;;;0.20;;
28166;SDS011;15455;53.376;-6.262;2023-07-31T03:59:57;1.10;;;0.40;;
28166;SDS011;15455;53.376;-6.262;2023-07-31T04:02:43;0.57;;;0.50;;
28166;SDS011;15455;53.376;-6.262;2023-07-31T04:05:29;5.03;;;0.32;;
28166;SDS011;15455;53.376;-6.262;2023-07-31T04:08:17;2.15;;;0.30;;
28166;SDS011;15455;53.376;-6.262;2023-07-31T04:11:02;1.42;;;0.40;;
28166;SDS011;15455;53.376;-6.262;2023-07-31T04:13:47;1.65;;;0.22;;
28166;SDS011;15455;53.376;-6.262;2023-07-31T04:16:33;0.30;;;0.25;;
28166;SDS011;15455;53.376;-6.262;2023-07-31T04:19:19;1.77;;;0.40;;
28166;SDS011;15455;53.376;-6.262;2023-07-31T04:22:04;3.65;;;0.55;;
28166;SDS011;15455;53.376;-6.262;2023-07-31T04:24:50;0.73;;;0.17;;
28166;SDS011;15455;53.376;-6.262;2023-07-31T04:27:35;2.70;;;0.50;;
28166;SDS011;15455;53.376;-6.262;2023-07-31T04:30:20;1.67;;;0.20;;
28166;SDS011;15455;53.376;-6.262;2023-07-31T04:33:06;0.85;;;0.50;;
28166;SDS011;15455;53.376;-6.262;2023-07-31T04:35:52;0.40;;;0.40;;
28166;SDS011;15455;53.376;-6.262;2023-07-31T04:38:40;0.25;;;0.17;;
28166;SDS011;15455;53.376;-6.262;2023-07-31T04:41:26;0.50;;;0.40;;
28166;SDS011;15455;53.376;-6.262;2023-07-31T04:44:12;0.50;;;0.38;;
28166;SDS011;15455;53.376;-6.262;2023-07-31T04:46:57;1.67;;;0.50;;
28166;SDS011;15455;53.376;-6.262;2023-07-31T04:49:43;3.83;;;0.40;;
28166;SDS011;15455;53.376;-6.262;2023-07-31T04:52:28;3.85;;;0.40;;
28166;SDS011;15455;53.376;-6.262;2023-07-31T04:55:14;0.85;;;0.75;;
28166;SDS011;15455;53.376;-6.262;2023-07-31T04:57:59;0.68;;;0.22;;
28166;SDS011;15455;53.376;-6.262;2023-07-31T05:00:44;0.52;;;0.35;;
28166;SDS011;15455;53.376;-6.262;2023-07-31T05:03:30;0.60;;;0.40;;
28166;SDS011;15455;53.376;-6.262;2023-07-31T05:06:15;1.48;;;0.32;;
28166;SDS011;15455;53.376;-6.262;2023-07-31T05:09:01;2.17;;;0.55;;
28166;SDS011;15455;53.376;-6.262;2023-07-31T05:11:47;0.25;;;0.25;;
28166;SDS011;15455;53.376;-6.262;2023-07-31T05:14:33;1.70;;;0.35;;
28166;SDS011;15455;53.376;-6.262;2023-07-31T05:17:18;0.40;;;0.28;;
28166;SDS011;15455;53.376;-6.262;2023-07-31T05:20:03;1.08;;;0.52;;
28166;SDS011;15455;53.376;-6.262;2023-07-31T05:22:50;1.95;;;0.47;;
28166;SDS011;15455;53.376;-6.262;2023-07-31T05:25:35;1.27;;;0.32;;
28166;SDS011;15455;53.376;-6.262;2023-07-31T05:28:21;0.82;;;0.40;;
28166;SDS011;15455;53.376;-6.262;2023-07-31T05:31:07;1.20;;;0.50;;
28166;SDS011;15455;53.376;-6.262;2023-07-31T05:33:52;2.80;;;0.80;;
28166;SDS011;15455;53.376;-6.262;2023-07-31T05:36:38;1.02;;;0.63;;
28166;SDS011;15455;53.376;-6.262;2023-07-31T05:39:24;2.80;;;0.55;;
28166;SDS011;15455;53.376;-6.262;2023-07-31T05:42:10;3.20;;;0.43;;
28166;SDS011;15455;53.376;-6.262;2023-07-31T05:44:55;2.78;;;0.70;;
28166;SDS011;15455;53.376;-6.262;2023-07-31T05:47:40;3.58;;;0.75;;
28166;SDS011;15455;53.376;-6.262;2023-07-31T05:50:26;2.28;;;0.80;;
28166;SDS011;15455;53.376;-6.262;2023-07-31T05:53:12;2.50;;;0.95;;
28166;SDS011;15455;53.376;-6.262;2023-07-31T05:55:57;2.80;;;0.90;;
28166;SDS011;15455;53.376;-6.262;2023-07-31T05:58:42;4.53;;;1.13;;
28166;SDS011;15455;53.376;-6.262;2023-07-31T06:01:28;2.10;;;0.82;;
28166;SDS011;15455;53.376;-6.262;2023-07-31T06:04:14;3.05;;;1.15;;
28166;SDS011;15455;53.376;-6.262;2023-07-31T06:06:59;8.02;;;0.93;;
28166;SDS011;15455;53.376;-6.262;2023-07-31T06:09:45;3.65;;;1.15;;
28166;SDS011;15455;53.376;-6.262;2023-07-31T06:12:31;1.67;;;0.88;;
28166;SDS011;15455;53.376;-6.262;2023-07-31T06:15:20;4.05;;;1.35;;
28166;SDS011;15455;53.376;-6.262;2023-07-31T06:18:06;1.70;;;1.02;;
28166;SDS011;15455;53.376;-6.262;2023-07-31T06:20:52;5.13;;;1.20;;
28166;SDS011;15455;53.376;-6.262;2023-07-31T06:23:38;7.05;;;1.10;;
28166;SDS011;15455;53.376;-6.262;2023-07-31T06:26:23;2.97;;;1.00;;
28166;SDS011;15455;53.376;-6.262;2023-07-31T06:29:09;2.53;;;0.90;;
28166;SDS011;15455;53.376;-6.262;2023-07-31T06:31:55;6.25;;;1.48;;
28166;SDS011;15455;53.376;-6.262;2023-07-31T06:34:41;5.03;;;1.25;;
28166;SDS011;15455;53.376;-6.262;2023-07-31T06:37:26;8.02;;;1.40;;
28166;SDS011;15455;53.376;-6.262;2023-07-31T06:40:12;3.85;;;1.20;;
28166;SDS011;15455;53.376;-6.262;2023-07-31T06:42:58;3.17;;;1.23;;
28166;SDS011;15455;53.376;-6.262;2023-07-31T06:45:43;6.40;;;1.77;;
28166;SDS011;15455;53.376;-6.262;2023-07-31T06:48:29;6.55;;;1.63;;
28166;SDS011;15455;53.376;-6.262;2023-07-31T06:51:14;5.53;;;1.33;;
28166;SDS011;15455;53.376;-6.262;2023-07-31T06:54:00;7.75;;;1.50;;
28166;SDS011;15455;53.376;-6.262;2023-07-31T06:56:45;3.53;;;1.35;;
28166;SDS011;15455;53.376;-6.262;2023-07-31T06:59:31;4.30;;;1.02;;
28166;SDS011;15455;53.376;-6.262;2023-07-31T07:02:16;3.67;;;1.50;;
28166;SDS011;15455;53.376;-6.262;2023-07-31T07:05:02;5.65;;;1.45;;
28166;SDS011;15455;53.376;-6.262;2023-07-31T07:07:49;3.70;;;1.50;;
28166;SDS011;15455;53.376;-6.262;2023-07-31T07:10:36;2.97;;;1.38;;
28166;SDS011;15455;53.376;-6.262;2023-07-31T07:13:22;7.30;;;1.52;;
28166;SDS011;15455;53.376;-6.262;2023-07-31T07:16:08;6.75;;;1.42;;
28166;SDS011;15455;53.376;-6.262;2023-07-31T07:18:55;4.50;;;1.38;;
28166;SDS011;15455;53.376;-6.262;2023-07-31T07:21:49;5.57;;;1.30;;
28166;SDS011;15455;53.376;-6.262;2023-07-31T07:24:34;5.57;;;1.60;;
28166;SDS011;15455;53.376;-6.262;2023-07-31T07:27:19;9.02;;;1.60;;
28166;SDS011;15455;53.376;-6.262;2023-07-31T07:30:05;2.72;;;0.85;;
28166;SDS011;15455;53.376;-6.262;2023-07-31T07:32:51;5.30;;;1.73;;
28166;SDS011;15455;53.376;-6.262;2023-07-31T07:35:37;5.63;;;1.20;;
28166;SDS011;15455;53.376;-6.262;2023-07-31T07:38:23;2.30;;;1.30;;
28166;SDS011;15455;53.376;-6.262;2023-07-31T07:41:08;2.28;;;1.10;;
28166;SDS011;15455;53.376;-6.262;2023-07-31T07:43:54;2.33;;;0.98;;
28166;SDS011;15455;53.376;-6.262;2023-07-31T07:46:40;3.00;;;1.00;;
28166;SDS011;15455;53.376;-6.262;2023-07-31T07:49:26;3.97;;;0.98;;
28166;SDS011;15455;53.376;-6.262;2023-07-31T07:52:11;4.10;;;1.30;;
28166;SDS011;15455;53.376;-6.262;2023-07-31T07:54:57;4.70;;;1.10;;
28166;SDS011;15455;53.376;-6.262;2023-07-31T07:57:42;4.68;;;1.20;;
28166;SDS011;15455;53.376;-6.262;2023-07-31T08:00:29;5.10;;;1.13;;
28166;SDS011;15455;53.376;-6.262;2023-07-31T08:03:15;2.40;;;1.10;;
28166;SDS011;15455;53.376;-6.262;2023-07-31T08:06:02;2.00;;;0.68;;
28166;SDS011;15455;53.376;-6.262;2023-07-31T08:08:47;4.00;;;0.98;;
28166;SDS011;15455;53.376;-6.262;2023-07-31T08:11:33;7.80;;;1.35;;
28166;SDS011;15455;53.376;-6.262;2023-07-31T08:14:18;3.63;;;0.82;;
28166;SDS011;15455;53.376;-6.262;2023-07-31T08:17:04;2.90;;;0.82;;
28166;SDS011;15455;53.376;-6.262;2023-07-31T08:19:50;2.72;;;1.17;;
28166;SDS011;15455;53.376;-6.262;2023-07-31T08:22:35;2.03;;;0.93;;
28166;SDS011;15455;53.376;-6.262;2023-07-31T08:25:21;4.72;;;1.58;;
28166;SDS011;15455;53.376;-6.262;2023-07-31T08:28:06;3.78;;;1.17;;
28166;SDS011;15455;53.376;-6.262;2023-07-31T08:30:52;4.43;;;1.02;;
28166;SDS011;15455;53.376;-6.262;2023-07-31T08:33:38;7.90;;;1.45;;
28166;SDS011;15455;53.376;-6.262;2023-07-31T08:36:24;1.92;;;1.02;;
28166;SDS011;15455;53.376;-6.262;2023-07-31T08:39:14;3.33;;;1.23;;
28166;SDS011;15455;53.376;-6.262;2023-07-31T08:41:59;7.72;;;1.30;;
28166;SDS011;15455;53.376;-6.262;2023-07-31T08:44:45;7.20;;;1.10;;
28166;SDS011;15455;53.376;-6.262;2023-07-31T08:47:32;10.10;;;1.88;;
28166;SDS011;15455;53.376;-6.262;2023-07-31T08:50:20;8.18;;;1.65;;
28166;SDS011;15455;53.376;-6.262;2023-07-31T08:53:06;6.38;;;1.40;;
28166;SDS011;15455;53.376;-6.262;2023-07-31T08:55:52;11.13;;;1.88;;
28166;SDS011;15455;53.376;-6.262;2023-07-31T08:58:39;9.27;;;1.83;;
28166;SDS011;15455;53.376;-6.262;2023-07-31T09:01:26;4.75;;;1.40;;
28166;SDS011;15455;53.376;-6.262;2023-07-31T09:04:15;8.60;;;1.55;;
28166;SDS011;15455;53.376;-6.262;2023-07-31T09:07:04;13.38;;;1.92;;
28166;SDS011;15455;53.376;-6.262;2023-07-31T09:09:50;7.68;;;1.70;;
28166;SDS011;15455;53.376;-6.262;2023-07-31T09:12:36;12.02;;;1.58;;
28166;SDS011;15455;53.376;-6.262;2023-07-31T09:15:23;6.13;;;1.85;;
28166;SDS011;15455;53.376;-6.262;2023-07-31T09:18:21;12.18;;;1.88;;
28166;SDS011;15455;53.376;-6.262;2023-07-31T09:21:08;5.70;;;1.40;;
28166;SDS011;15455;53.376;-6.262;2023-07-31T09:23:53;5.05;;;1.73;;
28166;SDS011;15455;53.376;-6.262;2023-07-31T09:26:39;10.25;;;1.75;;
28166;SDS011;15455;53.376;-6.262;2023-07-31T09:29:26;8.43;;;1.65;;
28166;SDS011;15455;53.376;-6.262;2023-07-31T09:32:16;8.57;;;1.50;;
28166;SDS011;15455;53.376;-6.262;2023-07-31T09:35:11;7.97;;;2.38;;
28166;SDS011;15455;53.376;-6.262;2023-07-31T09:38:00;12.77;;;2.45;;
28166;SDS011;15455;53.376;-6.262;2023-07-31T09:40:49;12.30;;;1.90;;
28166;SDS011;15455;53.376;-6.262;2023-07-31T09:43:34;11.65;;;2.15;;
28166;SDS011;15455;53.376;-6.262;2023-07-31T09:46:20;13.23;;;1.80;;
28166;SDS011;15455;53.376;-6.262;2023-07-31T09:49:07;7.35;;;1.60;;
28166;SDS011;15455;53.376;-6.262;2023-07-31T09:51:54;13.50;;;1.60;;
28166;SDS011;15455;53.376;-6.262;2023-07-31T09:54:39;9.48;;;2.00;;
28166;SDS011;15455;53.376;-6.262;2023-07-31T09:57:25;5.25;;;1.52;;
28166;SDS011;15455;53.376;-6.262;2023-07-31T10:00:12;11.00;;;1.42;;
28166;SDS011;15455;53.376;-6.262;2023-07-31T10:02:59;5.00;;;1.48;;
28166;SDS011;15455;53.376;-6.262;2023-07-31T10:05:48;9.27;;;2.25;;
28166;SDS011;15455;53.376;-6.262;2023-07-31T10:08:35;5.88;;;1.63;;
28166;SDS011;15455;53.376;-6.262;2023-07-31T10:11:22;8.05;;;2.00;;
28166;SDS011;15455;53.376;-6.262;2023-07-31T10:14:10;6.75;;;2.10;;
28166;SDS011;15455;53.376;-6.262;2023-07-31T10:16:58;6.45;;;1.95;;
28166;SDS011;15455;53.376;-6.262;2023-07-31T10:19:44;8.45;;;1.60;;
28166;SDS011;15455;53.376;-6.262;2023-07-31T10:22:30;11.90;;;2.22;;
28166;SDS011;15455;53.376;-6.262;2023-07-31T10:25:17;10.05;;;2.00;;
28166;SDS011;15455;53.376;-6.262;2023-07-31T10:28:04;7.75;;;1.58;;
28166;SDS011;15455;53.376;-6.262;2023-07-31T10:30:50;6.55;;;1.65;;
28166;SDS011;15455;53.376;-6.262;2023-07-31T10:33:37;6.90;;;1.40;;
28166;SDS011;15455;53.376;-6.262;2023-07-31T10:36:23;8.73;;;1.40;;
28166;SDS011;15455;53.376;-6.262;2023-07-31T10:42:31;7.80;;;1.17;;
28166;SDS011;15455;53.376;-6.262;2023-07-31T10:45:33;9.23;;;1.83;;
28166;SDS011;15455;53.376;-6.262;2023-07-31T10:48:27;10.73;;;2.03;;
28166;SDS011;15455;53.376;-6.262;2023-07-31T10:51:19;7.75;;;1.50;;
28166;SDS011;15455;53.376;-6.262;2023-07-31T10:54:14;14.45;;;1.85;;
28166;SDS011;15455;53.376;-6.262;2023-07-31T10:57:01;8.27;;;2.08;;
28166;SDS011;15455;53.376;-6.262;2023-07-31T10:59:48;7.57;;;1.88;;
28166;SDS011;15455;53.376;-6.262;2023-07-31T11:02:34;11.55;;;2.05;;
28166;SDS011;15455;53.376;-6.262;2023-07-31T11:05:20;9.52;;;1.70;;
28166;SDS011;15455;53.376;-6.262;2023-07-31T11:08:11;7.07;;;1.80;;
28166;SDS011;15455;53.376;-6.262;2023-07-31T11:11:23;7.45;;;1.58;;
28166;SDS011;15455;53.376;-6.262;2023-07-31T11:14:08;5.75;;;1.52;;
28166;SDS011;15455;53.376;-6.262;2023-07-31T11:16:55;7.55;;;1.80;;
28166;SDS011;15455;53.376;-6.262;2023-07-31T11:19:40;7.85;;;1.65;;
28166;SDS011;15455;53.376;-6.262;2023-07-31T11:22:26;5.30;;;1.25;;
28166;SDS011;15455;53.376;-6.262;2023-07-31T11:25:12;5.45;;;1.58;;
28166;SDS011;15455;53.376;-6.262;2023-07-31T11:28:03;5.60;;;1.35;;
28166;SDS011;15455;53.376;-6.262;2023-07-31T11:30:50;7.60;;;1.50;;
28166;SDS011;15455;53.376;-6.262;2023-07-31T11:33:35;7.28;;;1.63;;
28166;SDS011;15455;53.376;-6.262;2023-07-31T11:36:21;6.72;;;1.80;;
28166;SDS011;15455;53.376;-6.262;2023-07-31T11:39:09;6.20;;;1.90;;
28166;SDS011;15455;53.376;-6.262;2023-07-31T11:41:58;4.43;;;1.50;;
28166;SDS011;15455;53.376;-6.262;2023-07-31T11:44:45;7.03;;;1.45;;
28166;SDS011;15455;53.376;-6.262;2023-07-31T11:47:33;7.40;;;1.42;;
28166;SDS011;15455;53.376;-6.262;2023-07-31T11:50:20;10.48;;;1.75;;
28166;SDS011;15455;53.376;-6.262;2023-07-31T11:53:06;6.68;;;1.52;;
28166;SDS011;15455;53.376;-6.262;2023-07-31T11:55:54;5.97;;;1.52;;
28166;SDS011;15455;53.376;-6.262;2023-07-31T11:58:43;6.25;;;1.45;;
28166;SDS011;15455;53.376;-6.262;2023-07-31T12:01:32;6.05;;;1.25;;
28166;SDS011;15455;53.376;-6.262;2023-07-31T12:04:18;6.95;;;1.15;;
28166;SDS011;15455;53.376;-6.262;2023-07-31T12:07:05;2.08;;;0.95;;
28166;SDS011;15455;53.376;-6.262;2023-07-31T12:09:51;5.63;;;1.40;;
28166;SDS011;15455;53.376;-6.262;2023-07-31T12:12:38;5.65;;;1.30;;
28166;SDS011;15455;53.376;-6.262;2023-07-31T12:15:28;3.83;;;1.33;;
28166;SDS011;15455;53.376;-6.262;2023-07-31T12:18:19;3.00;;;1.02;;
28166;SDS011;15455;53.376;-6.262;2023-07-31T12:21:06;4.90;;;1.13;;
28166;SDS011;15455;53.376;-6.262;2023-07-31T12:23:53;4.93;;;1.10;;
28166;SDS011;15455;53.376;-6.262;2023-07-31T12:26:39;2.30;;;0.85;;
28166;SDS011;15455;53.376;-6.262;2023-07-31T12:29:33;6.10;;;1.67;;
28166;SDS011;15455;53.376;-6.262;2023-07-31T12:32:23;5.38;;;0.88;;
28166;SDS011;15455;53.376;-6.262;2023-07-31T12:35:10;3.92;;;0.70;;
28166;SDS011;15455;53.376;-6.262;2023-07-31T12:37:56;4.90;;;1.58;;
28166;SDS011;15455;53.376;-6.262;2023-07-31T12:40:43;2.28;;;0.50;;
28166;SDS011;15455;53.376;-6.262;2023-07-31T12:43:29;5.13;;;0.90;;
28166;SDS011;15455;53.376;-6.262;2023-07-31T12:46:14;5.50;;;0.88;;
28166;SDS011;15455;53.376;-6.262;2023-07-31T12:49:01;1.90;;;0.50;;
28166;SDS011;15455;53.376;-6.262;2023-07-31T12:51:47;6.30;;;1.60;;
28166;SDS011;15455;53.376;-6.262;2023-07-31T12:54:33;1.55;;;0.88;;
28166;SDS011;15455;53.376;-6.262;2023-07-31T12:57:20;5.10;;;1.15;;
28166;SDS011;15455;53.376;-6.262;2023-07-31T13:00:06;6.40;;;1.13;;
28166;SDS011;15455;53.376;-6.262;2023-07-31T13:02:53;2.08;;;0.70;;
28166;SDS011;15455;53.376;-6.262;2023-07-31T13:05:38;6.93;;;1.40;;
28166;SDS011;15455;53.376;-6.262;2023-07-31T13:08:24;4.13;;;1.27;;
28166;SDS011;15455;53.376;-6.262;2023-07-31T13:11:09;1.85;;;0.90;;
28166;SDS011;15455;53.376;-6.262;2023-07-31T13:13:55;3.85;;;1.20;;
28166;SDS011;15455;53.376;-6.262;2023-07-31T13:16:41;3.53;;;0.88;;
28166;SDS011;15455;53.376;-6.262;2023-07-31T13:19:27;4.53;;;1.08;;
28166;SDS011;15455;53.376;-6.262;2023-07-31T13:22:12;3.33;;;0.80;;
28166;SDS011;15455;53.376;-6.262;2023-07-31T13:24:57;2.95;;;1.13;;
28166;SDS011;15455;53.376;-6.262;2023-07-31T13:27:43;5.65;;;1.20;;
28166;SDS011;15455;53.376;-6.262;2023-07-31T13:30:28;4.72;;;0.98;;
28166;SDS011;15455;53.376;-6.262;2023-07-31T13:33:14;3.55;;;0.95;;
28166;SDS011;15455;53.376;-6.262;2023-07-31T13:36:19;6.45;;;1.40;;
28166;SDS011;15455;53.376;-6.262;2023-07-31T13:39:05;8.35;;;1.60;;
28166;SDS011;15455;53.376;-6.262;2023-07-31T13:41:51;6.10;;;1.27;;
28166;SDS011;15455;53.376;-6.262;2023-07-31T13:44:36;9.18;;;1.48;;
28166;SDS011;15455;53.376;-6.262;2023-07-31T13:47:22;2.65;;;0.95;;
28166;SDS011;15455;53.376;-6.262;2023-07-31T13:50:08;6.50;;;1.60;;
28166;SDS011;15455;53.376;-6.262;2023-07-31T13:52:54;8.40;;;1.70;;
28166;SDS011;15455;53.376;-6.262;2023-07-31T13:55:41;7.45;;;1.10;;
28166;SDS011;15455;53.376;-6.262;2023-07-31T13:58:32;6.88;;;1.40;;
28166;SDS011;15455;53.376;-6.262;2023-07-31T14:01:18;4.93;;;1.00;;
28166;SDS011;15455;53.376;-6.262;2023-07-31T14:04:04;3.85;;;1.10;;
28166;SDS011;15455;53.376;-6.262;2023-07-31T14:06:49;4.28;;;1.05;;
28166;SDS011;15455;53.376;-6.262;2023-07-31T14:09:35;5.60;;;1.42;;
28166;SDS011;15455;53.376;-6.262;2023-07-31T14:12:20;1.52;;;0.60;;
28166;SDS011;15455;53.376;-6.262;2023-07-31T14:15:27;4.85;;;1.00;;
28166;SDS011;15455;53.376;-6.262;2023-07-31T14:18:12;1.75;;;0.88;;
28166;SDS011;15455;53.376;-6.262;2023-07-31T14:20:58;6.22;;;1.15;;
28166;SDS011;15455;53.376;-6.262;2023-07-31T14:23:44;5.47;;;1.30;;
28166;SDS011;15455;53.376;-6.262;2023-07-31T14:26:29;5.05;;;0.60;;
28166;SDS011;15455;53.376;-6.262;2023-07-31T14:29:15;6.82;;;1.23;;
28166;SDS011;15455;53.376;-6.262;2023-07-31T14:32:00;5.00;;;0.98;;
28166;SDS011;15455;53.376;-6.262;2023-07-31T14:34:46;1.17;;;0.73;;
28166;SDS011;15455;53.376;-6.262;2023-07-31T14:37:38;6.85;;;1.23;;
28166;SDS011;15455;53.376;-6.262;2023-07-31T14:40:28;3.33;;;1.00;;
28166;SDS011;15455;53.376;-6.262;2023-07-31T14:43:13;3.80;;;1.20;;
28166;SDS011;15455;53.376;-6.262;2023-07-31T14:45:59;5.40;;;1.20;;
28166;SDS011;15455;53.376;-6.262;2023-07-31T14:48:45;5.30;;;1.25;;
28166;SDS011;15455;53.376;-6.262;2023-07-31T14:51:30;3.25;;;0.68;;
28166;SDS011;15455;53.376;-6.262;2023-07-31T14:54:16;9.30;;;1.42;;
28166;SDS011;15455;53.376;-6.262;2023-07-31T14:57:01;2.17;;;0.90;;
28166;SDS011;15455;53.376;-6.262;2023-07-31T14:59:47;2.78;;;0.70;;
28166;SDS011;15455;53.376;-6.262;2023-07-31T15:02:34;2.08;;;0.70;;
28166;SDS011;15455;53.376;-6.262;2023-07-31T15:05:20;3.50;;;0.93;;
28166;SDS011;15455;53.376;-6.262;2023-07-31T15:08:06;1.50;;;0.68;;
28166;SDS011;15455;53.376;-6.262;2023-07-31T15:10:52;8.02;;;1.58;;
28166;SDS011;15455;53.376;-6.262;2023-07-31T15:13:43;4.22;;;0.80;;
28166;SDS011;15455;53.376;-6.262;2023-07-31T15:16:28;5.55;;;1.02;;
28166;SDS011;15455;53.376;-6.262;2023-07-31T15:19:16;4.70;;;0.70;;
28166;SDS011;15455;53.376;-6.262;2023-07-31T15:22:02;4.10;;;0.82;;
28166;SDS011;15455;53.376;-6.262;2023-07-31T15:24:48;5.13;;;0.68;;
28166;SDS011;15455;53.376;-6.262;2023-07-31T15:27:34;3.38;;;0.63;;
28166;SDS011;15455;53.376;-6.262;2023-07-31T15:30:19;5.40;;;0.47;;
28166;SDS011;15455;53.376;-6.262;2023-07-31T15:33:05;5.10;;;0.82;;
28166;SDS011;15455;53.376;-6.262;2023-07-31T15:35:51;3.33;;;0.80;;
28166;SDS011;15455;53.376;-6.262;2023-07-31T15:38:40;3.90;;;1.00;;
28166;SDS011;15455;53.376;-6.262;2023-07-31T15:41:25;4.43;;;0.98;;
28166;SDS011;15455;53.376;-6.262;2023-07-31T15:44:11;5.40;;;1.38;;
28166;SDS011;15455;53.376;-6.262;2023-07-31T15:46:56;5.93;;;1.02;;
28166;SDS011;15455;53.376;-6.262;2023-07-31T15:49:42;9.15;;;1.40;;
28166;SDS011;15455;53.376;-6.262;2023-07-31T15:52:27;3.83;;;1.27;;
28166;SDS011;15455;53.376;-6.262;2023-07-31T15:55:13;5.63;;;1.10;;
28166;SDS011;15455;53.376;-6.262;2023-07-31T15:57:59;5.55;;;1.08;;
28166;SDS011;15455;53.376;-6.262;2023-07-31T16:00:44;6.13;;;1.38;;
28166;SDS011;15455;53.376;-6.262;2023-07-31T16:03:30;3.47;;;1.10;;
28166;SDS011;15455;53.376;-6.262;2023-07-31T16:06:16;6.45;;;1.38;;
28166;SDS011;15455;53.376;-6.262;2023-07-31T16:09:01;3.00;;;1.20;;
28166;SDS011;15455;53.376;-6.262;2023-07-31T16:11:47;4.38;;;1.00;;
28166;SDS011;15455;53.376;-6.262;2023-07-31T16:14:33;4.40;;;1.00;;
28166;SDS011;15455;53.376;-6.262;2023-07-31T16:17:18;2.72;;;1.00;;
28166;SDS011;15455;53.376;-6.262;2023-07-31T16:20:04;5.15;;;1.00;;
28166;SDS011;15455;53.376;-6.262;2023-07-31T16:22:51;5.03;;;0.90;;
28166;SDS011;15455;53.376;-6.262;2023-07-31T16:25:37;4.22;;;1.10;;
28166;SDS011;15455;53.376;-6.262;2023-07-31T16:28:23;2.78;;;0.90;;
28166;SDS011;15455;53.376;-6.262;2023-07-31T16:31:08;4.28;;;0.68;;
28166;SDS011;15455;53.376;-6.262;2023-07-31T16:33:54;7.93;;;1.95;;
28166;SDS011;15455;53.376;-6.262;2023-07-31T16:36:39;3.33;;;1.45;;